Time;durP1;ratioP1;P1;durP2;ratioP2;P2;SDS_P1;SDS_P2;PMS_P1;PMS_P2;Temp;Humidity;BMP_temperature;BMP_pressure;BME280_temperature;BME280_humidity;BME280_pressure;Samples;Min_cycle;Max_cycle;Signal;HPM_P1;HPM_P2
2021/08/03 00:02:08;;;;;;;1.88;1.30;;;;;;;;;;5092754;28;20111;-50
2021/08/03 00:04:37;;;;;;;3.25;1.60;;;;;;;;;;5067990;28;20036;-52
2021/08/03 00:07:04;;;;;;;3.25;1.60;;;;;;;;;;5084254;28;20119;-51
2021/08/03 00:09:31;;;;;;;4.43;1.73;;;;;;;;;;5081139;28;20028;-51
2021/08/03 00:11:58;;;;;;;3.72;1.75;;;;;;;;;;5079430;28;20050;-50
2021/08/03 00:14:24;;;;;;;2.45;1.55;;;;;;;;;;5078523;28;20028;-50
2021/08/03 00:16:50;;;;;;;3.40;1.60;;;;;;;;;;5094091;28;20024;-52
2021/08/03 00:19:16;;;;;;;3.47;1.77;;;;;;;;;;5093634;28;20030;-52
2021/08/03 00:21:42;;;;;;;3.47;1.35;;;;;;;;;;5093567;28;20368;-51
2021/08/03 00:24:08;;;;;;;3.25;1.80;;;;;;;;;;5071086;28;20203;-51
2021/08/03 00:26:34;;;;;;;3.00;1.50;;;;;;;;;;5081171;28;20043;-51
2021/08/03 00:29:00;;;;;;;3.97;1.35;;;;;;;;;;5081465;28;20024;-50
2021/08/03 00:31:27;;;;;;;3.55;1.70;;;;;;;;;;5093652;28;20029;-50
2021/08/03 00:33:54;;;;;;;5.75;1.27;;;;;;;;;;5065637;28;20043;-51
2021/08/03 00:36:21;;;;;;;4.60;1.50;;;;;;;;;;5072016;28;20032;-51
2021/08/03 00:38:47;;;;;;;2.20;1.40;;;;;;;;;;5093300;28;20144;-53
2021/08/03 00:41:18;;;;;;;2.53;1.20;;;;;;;;;;5079774;28;20059;-52
2021/08/03 00:43:44;;;;;;;3.28;1.20;;;;;;;;;;5068571;28;20036;-52
2021/08/03 00:46:10;;;;;;;3.65;1.33;;;;;;;;;;5074830;28;20031;-51
2021/08/03 00:48:36;;;;;;;2.28;1.30;;;;;;;;;;5093023;28;20032;-51
2021/08/03 00:51:02;;;;;;;2.40;1.52;;;;;;;;;;5088104;28;20094;-51
2021/08/03 00:53:30;;;;;;;4.10;1.85;;;;;;;;;;5060937;28;20120;-51
2021/08/03 00:55:56;;;;;;;2.65;1.50;;;;;;;;;;5084550;28;20356;-52
2021/08/03 00:58:22;;;;;;;3.20;1.85;;;;;;;;;;5065766;28;20033;-51
2021/08/03 01:00:48;;;;;;;1.90;1.70;;;;;;;;;;5085360;28;20078;-49
2021/08/03 01:03:14;;;;;;;4.63;2.05;;;;;;;;;;5084885;28;20039;-49
2021/08/03 01:05:46;;;;;;;2.67;1.80;;;;;;;;;;5084819;28;20438;-49
2021/08/03 01:08:16;;;;;;;2.42;1.48;;;;;;;;;;5092798;28;20036;-49
2021/08/03 01:10:59;;;;;;;2.20;1.48;;;;;;;;;;5088221;28;20058;-49
2021/08/03 01:13:44;;;;;;;2.57;1.50;;;;;;;;;;5081449;28;20034;-49
2021/08/03 01:16:18;;;;;;;3.88;1.25;;;;;;;;;;5092970;28;20020;-50
2021/08/03 01:18:55;;;;;;;2.95;1.40;;;;;;;;;;5074667;28;20024;-49
2021/08/03 01:21:43;;;;;;;2.63;1.30;;;;;;;;;;5087300;28;20452;-49
2021/08/03 01:24:17;;;;;;;2.70;1.35;;;;;;;;;;5066102;28;20153;-49
2021/08/03 01:26:48;;;;;;;2.35;1.30;;;;;;;;;;5077232;28;20040;-49
2021/08/03 01:29:18;;;;;;;2.60;1.30;;;;;;;;;;5055508;28;20037;-49
2021/08/03 01:31:47;;;;;;;2.85;1.20;;;;;;;;;;5062088;28;20036;-49
2021/08/03 01:34:14;;;;;;;2.17;1.30;;;;;;;;;;5092520;28;20089;-49
2021/08/03 01:36:42;;;;;;;2.38;1.30;;;;;;;;;;5071470;28;20035;-49
2021/08/03 01:39:09;;;;;;;2.72;1.38;;;;;;;;;;5090953;28;20020;-49
2021/08/03 01:41:35;;;;;;;2.42;1.52;;;;;;;;;;5077495;28;20031;-49
2021/08/03 01:44:02;;;;;;;3.33;1.27;;;;;;;;;;5090135;28;20555;-48
2021/08/03 01:46:29;;;;;;;4.40;1.80;;;;;;;;;;5064272;28;20038;-49
2021/08/03 01:48:58;;;;;;;2.55;1.38;;;;;;;;;;5072215;28;20422;-49
2021/08/03 01:51:24;;;;;;;2.70;1.33;;;;;;;;;;5090616;28;20121;-51
2021/08/03 01:53:51;;;;;;;2.83;1.42;;;;;;;;;;5058105;28;20112;-49
2021/08/03 01:56:17;;;;;;;3.25;1.25;;;;;;;;;;5061104;28;20135;-49
2021/08/03 01:58:43;;;;;;;4.35;1.38;;;;;;;;;;5076868;28;20032;-49
2021/08/03 02:01:10;;;;;;;4.57;1.67;;;;;;;;;;5092238;28;20422;-51
2021/08/03 02:03:37;;;;;;;3.05;1.55;;;;;;;;;;5092332;28;20154;-49
2021/08/03 02:06:03;;;;;;;2.65;1.35;;;;;;;;;;5078413;28;20036;-50
2021/08/03 02:08:30;;;;;;;4.80;1.60;;;;;;;;;;5061038;28;20189;-50
2021/08/03 02:10:56;;;;;;;3.15;1.58;;;;;;;;;;5081442;28;20125;-50
2021/08/03 02:13:23;;;;;;;2.80;1.60;;;;;;;;;;5085314;28;20036;-49
2021/08/03 02:15:49;;;;;;;1.27;1.17;;;;;;;;;;5089097;28;20111;-49
2021/08/03 02:18:16;;;;;;;2.78;1.42;;;;;;;;;;5091508;28;20093;-49
2021/08/03 02:20:45;;;;;;;4.95;1.70;;;;;;;;;;5092322;28;20020;-49
2021/08/03 02:23:12;;;;;;;2.47;1.48;;;;;;;;;;5076195;28;20025;-49
2021/08/03 02:25:38;;;;;;;3.22;1.40;;;;;;;;;;5058982;28;20044;-49
2021/08/03 02:28:04;;;;;;;4.45;1.45;;;;;;;;;;5061320;28;20158;-49
2021/08/03 02:30:30;;;;;;;2.22;1.10;;;;;;;;;;5092126;28;20043;-50
2021/08/03 02:32:56;;;;;;;3.95;1.40;;;;;;;;;;5090226;28;20103;-49
2021/08/03 02:35:28;;;;;;;2.85;1.30;;;;;;;;;;5085518;28;21957;-49
2021/08/03 02:38:00;;;;;;;1.60;1.38;;;;;;;;;;5090854;28;20122;-49
2021/08/03 02:40:26;;;;;;;1.73;1.23;;;;;;;;;;5096006;28;20016;-49
2021/08/03 02:42:53;;;;;;;3.20;1.45;;;;;;;;;;5093493;28;20181;-49
2021/08/03 02:45:19;;;;;;;1.20;1.10;;;;;;;;;;5077079;28;20032;-48
2021/08/03 02:47:53;;;;;;;2.35;1.33;;;;;;;;;;5095332;28;20365;-49
2021/08/03 02:50:20;;;;;;;2.80;1.65;;;;;;;;;;5090793;28;20032;-50
2021/08/03 02:52:47;;;;;;;4.75;1.60;;;;;;;;;;5083424;28;20507;-50
2021/08/03 02:55:19;;;;;;;3.10;1.50;;;;;;;;;;5084935;28;20046;-49
2021/08/03 02:57:46;;;;;;;2.47;1.55;;;;;;;;;;5074668;28;20477;-49
2021/08/03 03:00:13;;;;;;;3.97;1.55;;;;;;;;;;5076759;28;20055;-49
2021/08/03 03:02:41;;;;;;;4.10;1.67;;;;;;;;;;5081647;28;20481;-50
2021/08/03 03:05:07;;;;;;;2.83;1.63;;;;;;;;;;5074004;28;20031;-49
2021/08/03 03:07:36;;;;;;;4.13;1.40;;;;;;;;;;5090577;28;20111;-49
2021/08/03 03:10:04;;;;;;;2.15;1.65;;;;;;;;;;5091988;28;20123;-50
2021/08/03 03:12:32;;;;;;;2.28;1.20;;;;;;;;;;5094043;28;20099;-49
2021/08/03 03:14:59;;;;;;;2.22;1.30;;;;;;;;;;5084447;28;20432;-49
2021/08/03 03:17:27;;;;;;;3.38;1.60;;;;;;;;;;5094937;28;20050;-49
2021/08/03 03:19:54;;;;;;;2.50;1.33;;;;;;;;;;5083218;28;20069;-50
2021/08/03 03:22:20;;;;;;;3.58;1.20;;;;;;;;;;5090657;28;20016;-49
2021/08/03 03:24:47;;;;;;;4.07;1.90;;;;;;;;;;5057337;28;20108;-49
2021/08/03 03:27:13;;;;;;;2.22;1.27;;;;;;;;;;5069161;28;20111;-50
2021/08/03 03:29:40;;;;;;;4.78;1.70;;;;;;;;;;5094566;28;20149;-50
2021/08/03 03:32:06;;;;;;;3.13;1.40;;;;;;;;;;5086651;28;20024;-51
2021/08/03 03:34:33;;;;;;;1.95;1.30;;;;;;;;;;5078456;28;20048;-49
2021/08/03 03:37:00;;;;;;;1.88;1.45;;;;;;;;;;5094022;28;20107;-49
2021/08/03 03:39:26;;;;;;;1.60;1.15;;;;;;;;;;5087373;28;20016;-51
2021/08/03 03:41:54;;;;;;;2.47;1.40;;;;;;;;;;5074057;28;20074;-50
2021/08/03 03:44:20;;;;;;;3.80;1.38;;;;;;;;;;5083605;28;20016;-50
2021/08/03 03:46:55;;;;;;;1.77;1.50;;;;;;;;;;5094093;28;20384;-49
2021/08/03 03:49:24;;;;;;;2.95;1.48;;;;;;;;;;5080450;28;20479;-49
2021/08/03 03:51:50;;;;;;;1.55;1.25;;;;;;;;;;5079609;28;20246;-50
2021/08/03 03:54:24;;;;;;;1.80;1.20;;;;;;;;;;5085832;28;20096;-50
2021/08/03 03:56:54;;;;;;;2.15;1.42;;;;;;;;;;5092884;28;20036;-49
2021/08/03 03:59:21;;;;;;;4.18;1.30;;;;;;;;;;5091294;28;20541;-49
2021/08/03 04:01:50;;;;;;;3.20;1.48;;;;;;;;;;5094435;28;20433;-49
2021/08/03 04:04:17;;;;;;;6.97;1.75;;;;;;;;;;5094104;28;20028;-49
2021/08/03 04:06:43;;;;;;;1.92;1.42;;;;;;;;;;5089074;28;20063;-49
2021/08/03 04:09:18;;;;;;;2.50;1.35;;;;;;;;;;5078071;28;20021;-51
2021/08/03 04:11:45;;;;;;;4.25;1.63;;;;;;;;;;5081013;28;20607;-49
2021/08/03 04:14:12;;;;;;;2.13;1.38;;;;;;;;;;5081261;28;20043;-51
2021/08/03 04:16:39;;;;;;;5.30;1.80;;;;;;;;;;5093969;28;20396;-49
2021/08/03 04:19:05;;;;;;;2.50;1.40;;;;;;;;;;5093753;28;20024;-49
2021/08/03 04:21:31;;;;;;;1.80;1.35;;;;;;;;;;5093472;28;20024;-49
2021/08/03 04:23:57;;;;;;;3.28;1.77;;;;;;;;;;5061399;28;20502;-49
2021/08/03 04:26:23;;;;;;;4.82;1.48;;;;;;;;;;5066070;28;20031;-49
2021/08/03 04:28:49;;;;;;;2.15;1.50;;;;;;;;;;5093628;28;20050;-49
2021/08/03 04:31:14;;;;;;;1.42;1.17;;;;;;;;;;5093902;28;20555;-49
2021/08/03 04:33:40;;;;;;;4.03;1.92;;;;;;;;;;5085246;28;20040;-49
2021/08/03 04:36:06;;;;;;;2.65;1.67;;;;;;;;;;5072441;28;20032;-51
2021/08/03 04:38:32;;;;;;;3.72;1.88;;;;;;;;;;5092845;28;20025;-49
2021/08/03 04:40:58;;;;;;;4.57;1.88;;;;;;;;;;5066474;28;20457;-49
2021/08/03 04:43:24;;;;;;;2.10;1.58;;;;;;;;;;5061553;28;20020;-49
2021/08/03 04:45:50;;;;;;;2.13;1.45;;;;;;;;;;5055887;28;20090;-49
2021/08/03 04:48:16;;;;;;;2.53;1.60;;;;;;;;;;5084981;28;20032;-49
2021/08/03 04:50:42;;;;;;;4.45;1.80;;;;;;;;;;5081158;28;20479;-49
2021/08/03 04:53:08;;;;;;;3.17;1.63;;;;;;;;;;5074453;28;20542;-49
2021/08/03 04:55:34;;;;;;;3.88;1.60;;;;;;;;;;5078222;28;20099;-50
2021/08/03 04:58:00;;;;;;;5.72;1.70;;;;;;;;;;5059219;28;20032;-49
2021/08/03 05:00:26;;;;;;;2.75;1.67;;;;;;;;;;5071644;28;20028;-49
2021/08/03 05:02:52;;;;;;;2.25;1.50;;;;;;;;;;5065744;28;20029;-49
2021/08/03 05:05:18;;;;;;;2.72;1.35;;;;;;;;;;5079268;28;20032;-49
2021/08/03 05:07:54;;;;;;;3.25;1.52;;;;;;;;;;5091970;28;20028;-51
2021/08/03 05:10:20;;;;;;;3.13;1.30;;;;;;;;;;5087393;28;20396;-49
2021/08/03 05:12:46;;;;;;;2.65;2.00;;;;;;;;;;5074656;28;20550;-49
2021/08/03 05:15:12;;;;;;;4.10;1.50;;;;;;;;;;5086872;28;20024;-49
2021/08/03 05:17:38;;;;;;;3.90;1.85;;;;;;;;;;5069353;28;20056;-50
2021/08/03 05:20:04;;;;;;;3.25;1.45;;;;;;;;;;5079930;28;20036;-50
2021/08/03 05:22:30;;;;;;;3.60;1.55;;;;;;;;;;5071918;28;20024;-51
2021/08/03 05:24:58;;;;;;;4.90;1.75;;;;;;;;;;5060605;28;20021;-50
2021/08/03 05:27:24;;;;;;;7.30;1.60;;;;;;;;;;5077336;28;20028;-51
2021/08/03 05:29:50;;;;;;;2.63;1.60;;;;;;;;;;5071615;28;20039;-50
2021/08/03 05:32:16;;;;;;;4.65;1.67;;;;;;;;;;5083231;28;20028;-49
2021/08/03 05:34:42;;;;;;;3.00;1.52;;;;;;;;;;5071156;28;20036;-49
2021/08/03 05:37:08;;;;;;;3.17;1.73;;;;;;;;;;5060261;28;20044;-49
2021/08/03 05:39:34;;;;;;;2.85;1.80;;;;;;;;;;5068709;28;20126;-49
2021/08/03 05:42:01;;;;;;;4.07;1.60;;;;;;;;;;5068310;28;20027;-49
2021/08/03 05:44:27;;;;;;;3.33;2.05;;;;;;;;;;5073484;28;20055;-49
2021/08/03 05:46:54;;;;;;;4.68;1.58;;;;;;;;;;5057821;28;22188;-49
2021/08/03 05:49:20;;;;;;;3.50;1.70;;;;;;;;;;5054627;28;20037;-49
2021/08/03 05:51:46;;;;;;;6.45;1.90;;;;;;;;;;5077271;28;20056;-49
2021/08/03 05:54:12;;;;;;;6.00;1.58;;;;;;;;;;5062436;28;20056;-49
2021/08/03 05:56:39;;;;;;;4.32;1.58;;;;;;;;;;5056153;28;20032;-49
2021/08/03 05:59:05;;;;;;;4.30;1.60;;;;;;;;;;5055216;28;20419;-49
2021/08/03 06:01:31;;;;;;;4.13;1.42;;;;;;;;;;5067437;28;20079;-53
2021/08/03 06:03:57;;;;;;;12.82;2.10;;;;;;;;;;5064992;28;20495;-49
2021/08/03 06:06:25;;;;;;;3.08;1.75;;;;;;;;;;5064392;28;20025;-49
2021/08/03 06:08:51;;;;;;;5.88;1.58;;;;;;;;;;5079325;28;20469;-49
2021/08/03 06:11:18;;;;;;;5.43;1.55;;;;;;;;;;5087452;28;20052;-54
2021/08/03 06:13:47;;;;;;;2.80;1.40;;;;;;;;;;5062924;28;20067;-49
2021/08/03 06:16:17;;;;;;;5.35;1.80;;;;;;;;;;5065458;28;20037;-49
2021/08/03 06:18:44;;;;;;;4.53;1.90;;;;;;;;;;5074902;28;20447;-50
2021/08/03 06:21:10;;;;;;;4.07;1.67;;;;;;;;;;5074576;28;20032;-49
2021/08/03 06:23:37;;;;;;;4.05;1.40;;;;;;;;;;5089544;28;20723;-51
2021/08/03 06:26:04;;;;;;;2.97;1.65;;;;;;;;;;5081637;28;20032;-49
2021/08/03 06:28:30;;;;;;;1.73;1.40;;;;;;;;;;5091524;28;20024;-49
2021/08/03 06:30:57;;;;;;;4.95;1.65;;;;;;;;;;5077792;28;20055;-55
2021/08/03 06:33:23;;;;;;;4.88;1.38;;;;;;;;;;5064519;28;20028;-50
2021/08/03 06:35:50;;;;;;;3.40;1.60;;;;;;;;;;5071206;28;20032;-50
2021/08/03 06:38:16;;;;;;;5.07;2.08;;;;;;;;;;5063777;28;20025;-50
2021/08/03 06:40:59;;;;;;;2.70;1.58;;;;;;;;;;5079207;28;20036;-50
2021/08/03 06:43:25;;;;;;;4.05;1.45;;;;;;;;;;5074292;28;20024;-49
2021/08/03 06:46:01;;;;;;;1.67;1.48;;;;;;;;;;5086364;28;20533;-49
2021/08/03 06:48:37;;;;;;;5.20;1.42;;;;;;;;;;5091358;28;20032;-51
2021/08/03 06:51:05;;;;;;;5.28;2.00;;;;;;;;;;5056196;28;20112;-50
2021/08/03 06:53:31;;;;;;;4.22;1.65;;;;;;;;;;5071839;28;20032;-50
2021/08/03 06:56:04;;;;;;;2.88;1.77;;;;;;;;;;5085461;28;20026;-52
2021/08/03 06:58:38;;;;;;;8.57;1.80;;;;;;;;;;5091308;28;20042;-52
2021/08/03 07:01:05;;;;;;;6.30;2.13;;;;;;;;;;5062098;28;20377;-49
2021/08/03 07:03:41;;;;;;;3.72;1.50;;;;;;;;;;5053890;28;20029;-50
2021/08/03 07:06:09;;;;;;;4.38;1.67;;;;;;;;;;5061017;28;20033;-49
2021/08/03 07:08:36;;;;;;;3.63;2.10;;;;;;;;;;5066125;28;20023;-49
2021/08/03 07:11:03;;;;;;;3.47;1.70;;;;;;;;;;5064467;28;20051;-50
2021/08/03 07:13:30;;;;;;;3.45;1.80;;;;;;;;;;5080294;28;20075;-52
2021/08/03 07:15:56;;;;;;;4.93;1.90;;;;;;;;;;5082788;28;20116;-52
2021/08/03 07:18:23;;;;;;;2.60;1.67;;;;;;;;;;5065423;28;20055;-51
2021/08/03 07:20:50;;;;;;;6.95;1.90;;;;;;;;;;5078870;28;20028;-49
2021/08/03 07:23:20;;;;;;;4.25;1.48;;;;;;;;;;5059695;28;20033;-50
2021/08/03 07:25:47;;;;;;;3.75;2.08;;;;;;;;;;5068572;28;20025;-51
2021/08/03 07:28:13;;;;;;;3.47;1.55;;;;;;;;;;5063304;28;20127;-53
2021/08/03 07:30:42;;;;;;;3.92;1.60;;;;;;;;;;5060473;28;20112;-55
2021/08/03 07:33:10;;;;;;;2.22;1.33;;;;;;;;;;5067053;28;20536;-50
2021/08/03 07:35:38;;;;;;;2.92;1.58;;;;;;;;;;5084456;28;20027;-51
2021/08/03 07:38:05;;;;;;;7.72;1.55;;;;;;;;;;5070493;28;20024;-50
2021/08/03 07:40:31;;;;;;;3.88;1.10;;;;;;;;;;5078638;28;20520;-49
2021/08/03 07:42:57;;;;;;;3.13;1.98;;;;;;;;;;5094033;28;20035;-51
2021/08/03 07:45:23;;;;;;;3.88;1.33;;;;;;;;;;5082681;28;20405;-49
2021/08/03 07:47:49;;;;;;;5.45;1.15;;;;;;;;;;5078687;28;20039;-49
2021/08/03 07:50:15;;;;;;;5.72;1.33;;;;;;;;;;5081167;28;20056;-49
2021/08/03 07:52:41;;;;;;;4.53;1.30;;;;;;;;;;5074779;28;20025;-49
2021/08/03 07:55:07;;;;;;;6.03;1.50;;;;;;;;;;5059600;28;20033;-49
2021/08/03 07:57:33;;;;;;;5.20;1.70;;;;;;;;;;5070133;28;20027;-49
2021/08/03 07:59:59;;;;;;;6.50;1.98;;;;;;;;;;5067666;28;20020;-49
2021/08/03 08:02:25;;;;;;;2.88;1.25;;;;;;;;;;5059070;28;20025;-49
2021/08/03 08:04:51;;;;;;;5.55;1.15;;;;;;;;;;5066875;28;20115;-50
2021/08/03 08:07:17;;;;;;;4.95;1.30;;;;;;;;;;5066493;28;20035;-50
2021/08/03 08:09:43;;;;;;;8.18;1.15;;;;;;;;;;5069682;28;20107;-50
2021/08/03 08:12:09;;;;;;;4.45;1.30;;;;;;;;;;5069057;28;20040;-49
2021/08/03 08:14:35;;;;;;;2.92;1.02;;;;;;;;;;5063207;28;20127;-49
2021/08/03 08:17:01;;;;;;;5.05;1.25;;;;;;;;;;5062743;28;20098;-49
2021/08/03 08:19:27;;;;;;;1.80;0.90;;;;;;;;;;5058888;28;20032;-52
2021/08/03 08:21:53;;;;;;;1.58;1.00;;;;;;;;;;5057083;28;20028;-50
2021/08/03 08:24:20;;;;;;;3.20;1.48;;;;;;;;;;5060070;28;20028;-49
2021/08/03 08:26:47;;;;;;;5.63;1.08;;;;;;;;;;5062511;28;20080;-49
2021/08/03 08:29:16;;;;;;;3.15;0.93;;;;;;;;;;5064284;28;20033;-49
2021/08/03 08:31:42;;;;;;;4.45;1.05;;;;;;;;;;5065557;28;20040;-49
2021/08/03 08:34:08;;;;;;;3.13;0.80;;;;;;;;;;5061533;28;20029;-49
2021/08/03 08:36:34;;;;;;;4.90;0.82;;;;;;;;;;5062596;28;20035;-50
2021/08/03 08:39:00;;;;;;;2.70;0.80;;;;;;;;;;5064459;28;20445;-49
2021/08/03 08:41:26;;;;;;;4.07;1.00;;;;;;;;;;5074998;28;20443;-51
2021/08/03 08:43:52;;;;;;;1.90;0.63;;;;;;;;;;5084329;28;20028;-49
2021/08/03 08:46:18;;;;;;;2.30;0.90;;;;;;;;;;5086996;28;20173;-50
2021/08/03 08:48:45;;;;;;;2.92;1.00;;;;;;;;;;5080156;28;20611;-50
2021/08/03 08:51:11;;;;;;;4.03;0.80;;;;;;;;;;5078631;28;20028;-50
2021/08/03 08:53:37;;;;;;;2.83;0.88;;;;;;;;;;5079531;28;20038;-50
2021/08/03 08:56:04;;;;;;;2.42;0.77;;;;;;;;;;5069692;28;20020;-50
2021/08/03 08:58:34;;;;;;;3.38;1.10;;;;;;;;;;5072863;28;20020;-51
2021/08/03 09:01:00;;;;;;;4.45;0.90;;;;;;;;;;5091988;28;20016;-49
2021/08/03 09:03:26;;;;;;;5.82;0.88;;;;;;;;;;5086752;28;20039;-50
2021/08/03 09:06:03;;;;;;;2.42;0.90;;;;;;;;;;5081672;28;20033;-49
2021/08/03 09:08:36;;;;;;;3.42;0.70;;;;;;;;;;5068334;28;20032;-49
2021/08/03 09:11:02;;;;;;;;;;;;;;;;;;5080515;28;20052;-52
2021/08/03 09:13:28;;;;;;;2.45;0.90;;;;;;;;;;5075889;28;19951;-50
2021/08/03 09:15:59;;;;;;;2.97;0.95;;;;;;;;;;5077076;28;20058;-50
2021/08/03 09:18:39;;;;;;;1.70;0.70;;;;;;;;;;5089439;28;20077;-50
2021/08/03 09:21:05;;;;;;;2.90;1.10;;;;;;;;;;5088687;28;20024;-49
2021/08/03 09:23:46;;;;;;;2.65;0.82;;;;;;;;;;5057968;28;20140;-49
2021/08/03 09:26:12;;;;;;;2.58;0.77;;;;;;;;;;5058545;28;20078;-49
2021/08/03 09:28:57;;;;;;;3.35;1.00;;;;;;;;;;5057961;28;20120;-49
2021/08/03 09:31:23;;;;;;;2.63;0.80;;;;;;;;;;5069590;28;20029;-49
2021/08/03 09:33:49;;;;;;;1.85;0.60;;;;;;;;;;5065496;28;20069;-50
2021/08/03 09:36:15;;;;;;;2.13;0.65;;;;;;;;;;5071447;28;20451;-51
2021/08/03 09:38:41;;;;;;;2.03;0.90;;;;;;;;;;5068167;28;20381;-49
2021/08/03 09:41:09;;;;;;;2.03;0.65;;;;;;;;;;5071978;28;20036;-55
2021/08/03 09:43:35;;;;;;;2.05;0.60;;;;;;;;;;5081710;28;20020;-50
2021/08/03 09:46:01;;;;;;;2.83;0.52;;;;;;;;;;5077946;28;20032;-50
2021/08/03 09:48:28;;;;;;;2.42;0.40;;;;;;;;;;5069437;28;20469;-50
2021/08/03 09:51:00;;;;;;;2.95;0.80;;;;;;;;;;5072655;28;20066;-49
2021/08/03 09:53:38;;;;;;;1.40;0.55;;;;;;;;;;5083441;28;20486;-50
2021/08/03 09:56:05;;;;;;;1.52;0.50;;;;;;;;;;5083075;28;20035;-50
2021/08/03 09:58:33;;;;;;;3.45;0.63;;;;;;;;;;5059245;28;20029;-49
2021/08/03 10:01:18;;;;;;;2.45;0.63;;;;;;;;;;5060274;28;20021;-49
2021/08/03 10:03:44;;;;;;;2.47;0.63;;;;;;;;;;5067071;28;20028;-51
2021/08/03 10:06:10;;;;;;;2.10;0.50;;;;;;;;;;5076530;28;20061;-50
2021/08/03 10:08:37;;;;;;;5.65;0.75;;;;;;;;;;5074556;28;20103;-54
2021/08/03 10:11:03;;;;;;;4.32;0.80;;;;;;;;;;5060576;28;20426;-49
2021/08/03 10:13:30;;;;;;;2.30;0.55;;;;;;;;;;5071969;28;20517;-53
2021/08/03 10:15:56;;;;;;;2.88;0.70;;;;;;;;;;5064149;28;20103;-49
2021/08/03 10:18:22;;;;;;;4.40;0.70;;;;;;;;;;5064087;28;20066;-49
2021/08/03 10:20:48;;;;;;;1.40;0.63;;;;;;;;;;5051805;28;20033;-49
2021/08/03 10:23:14;;;;;;;2.60;0.80;;;;;;;;;;5055616;28;20489;-49
2021/08/03 10:25:42;;;;;;;1.40;0.60;;;;;;;;;;5061924;28;20037;-51
2021/08/03 10:28:26;;;;;;;3.00;0.95;;;;;;;;;;5069519;28;20032;-49
2021/08/03 10:30:54;;;;;;;1.67;0.70;;;;;;;;;;5059887;28;20032;-49
2021/08/03 10:33:39;;;;;;;5.32;1.20;;;;;;;;;;5063544;28;20035;-49
2021/08/03 10:36:05;;;;;;;3.63;0.82;;;;;;;;;;5051949;28;20022;-49
2021/08/03 10:38:32;;;;;;;6.30;0.90;;;;;;;;;;5070337;28;23332;-49
2021/08/03 10:41:02;;;;;;;2.38;0.70;;;;;;;;;;5061948;28;20025;-51
2021/08/03 10:43:34;;;;;;;8.80;1.10;;;;;;;;;;5078183;28;20048;-49
2021/08/03 10:46:06;;;;;;;1.67;0.73;;;;;;;;;;5073270;28;20031;-49
2021/08/03 10:48:42;;;;;;;2.60;1.00;;;;;;;;;;5083664;28;20024;-52
2021/08/03 10:51:15;;;;;;;1.60;0.80;;;;;;;;;;5066961;28;20427;-50
2021/08/03 10:54:01;;;;;;;2.75;0.90;;;;;;;;;;5078105;28;20120;-50
2021/08/03 10:56:27;;;;;;;2.35;1.00;;;;;;;;;;5060777;28;20074;-50
2021/08/03 10:59:12;;;;;;;2.05;0.80;;;;;;;;;;5067726;28;20016;-49
2021/08/03 11:01:47;;;;;;;2.03;0.73;;;;;;;;;;5072633;28;20112;-51
2021/08/03 11:04:32;;;;;;;0.98;0.60;;;;;;;;;;5070000;28;20355;-50
2021/08/03 11:07:17;;;;;;;2.67;1.15;;;;;;;;;;5058948;28;20029;-51
2021/08/03 11:09:43;;;;;;;5.78;1.50;;;;;;;;;;5069138;28;20107;-49
2021/08/03 11:12:32;;;;;;;4.38;1.17;;;;;;;;;;5086600;28;20039;-51
2021/08/03 11:14:59;;;;;;;1.40;0.75;;;;;;;;;;5095191;28;20096;-49
2021/08/03 11:17:45;;;;;;;3.92;0.80;;;;;;;;;;5095220;28;20044;-49
2021/08/03 11:20:30;;;;;;;3.75;1.08;;;;;;;;;;5095250;28;20107;-49
2021/08/03 11:22:56;;;;;;;3.10;0.93;;;;;;;;;;5095126;28;20494;-50
2021/08/03 11:25:22;;;;;;;3.75;0.80;;;;;;;;;;5082772;28;20032;-49
2021/08/03 11:27:48;;;;;;;2.45;0.75;;;;;;;;;;5094734;28;20099;-49
2021/08/03 11:30:15;;;;;;;2.13;1.00;;;;;;;;;;5094466;28;20024;-49
2021/08/03 11:32:41;;;;;;;2.83;1.00;;;;;;;;;;5091658;28;20103;-49
2021/08/03 11:35:07;;;;;;;1.45;0.65;;;;;;;;;;5086134;28;20021;-49
2021/08/03 11:37:40;;;;;;;4.30;1.13;;;;;;;;;;5080724;28;20021;-50
2021/08/03 11:40:07;;;;;;;2.78;1.10;;;;;;;;;;5059403;28;20036;-49
2021/08/03 11:42:37;;;;;;;2.70;0.98;;;;;;;;;;5083854;28;20108;-51
2021/08/03 11:45:05;;;;;;;1.98;0.80;;;;;;;;;;5062922;28;21205;-52
2021/08/03 11:47:57;;;;;;;1.70;0.90;;;;;;;;;;5083375;28;20100;-49
2021/08/03 11:50:31;;;;;;;1.83;0.88;;;;;;;;;;5082238;28;20051;-49
2021/08/03 11:52:56;;;;;;;;;;;;;;;;;;5055318;28;20507;-52
2021/08/03 11:55:22;;;;;;;4.32;1.65;;;;;;;;;;5063376;28;19916;-51
2021/08/03 11:57:49;;;;;;;5.18;1.05;;;;;;;;;;5090658;28;20024;-50
2021/08/03 12:00:17;;;;;;;1.20;0.80;;;;;;;;;;5068099;28;20357;-49
2021/08/03 12:02:45;;;;;;;1.92;0.80;;;;;;;;;;5070644;28;20028;-49
2021/08/03 12:05:14;;;;;;;3.67;1.00;;;;;;;;;;5076748;28;20039;-49
2021/08/03 12:07:45;;;;;;;2.35;1.20;;;;;;;;;;5073262;28;20037;-49
2021/08/03 12:10:11;;;;;;;1.55;0.80;;;;;;;;;;5056495;28;20040;-50
2021/08/03 12:12:42;;;;;;;2.78;0.90;;;;;;;;;;5087470;28;20103;-51
2021/08/03 12:15:10;;;;;;;3.40;1.20;;;;;;;;;;5081245;28;20075;-50
2021/08/03 12:17:36;;;;;;;1.63;1.00;;;;;;;;;;5078600;28;20096;-49
2021/08/03 12:20:21;;;;;;;2.95;1.00;;;;;;;;;;5080698;28;20043;-51
2021/08/03 12:22:47;;;;;;;3.08;0.93;;;;;;;;;;5093431;28;20519;-51
2021/08/03 12:25:13;;;;;;;3.80;1.27;;;;;;;;;;5071334;28;20162;-49
2021/08/03 12:27:40;;;;;;;3.55;1.10;;;;;;;;;;5088331;28;20031;-49
2021/08/03 12:30:06;;;;;;;3.80;0.70;;;;;;;;;;5080120;28;20484;-52
2021/08/03 12:32:36;;;;;;;1.75;0.88;;;;;;;;;;5082117;28;20095;-52
2021/08/03 12:35:12;;;;;;;3.70;1.10;;;;;;;;;;5064058;28;20035;-53
2021/08/03 12:37:38;;;;;;;1.52;0.90;;;;;;;;;;5071266;28;20123;-50
2021/08/03 12:40:27;;;;;;;1.85;0.90;;;;;;;;;;5069221;28;20044;-49
2021/08/03 12:42:53;;;;;;;1.73;0.80;;;;;;;;;;5076472;28;20032;-49
2021/08/03 12:45:20;;;;;;;2.13;1.00;;;;;;;;;;5056140;28;20053;-49
2021/08/03 12:47:53;;;;;;;1.80;0.90;;;;;;;;;;5079096;28;20423;-50
2021/08/03 12:50:19;;;;;;;;;;;;;;;;;;5074023;28;20036;-50
2021/08/03 12:52:55;;;;;;;1.83;0.90;;;;;;;;;;5058121;28;19940;-49
2021/08/03 12:55:31;;;;;;;4.32;1.00;;;;;;;;;;5060066;28;20080;-49
2021/08/03 12:57:58;;;;;;;3.70;1.17;;;;;;;;;;5092818;28;20081;-49
2021/08/03 13:00:37;;;;;;;2.92;0.90;;;;;;;;;;5092876;28;20020;-50
2021/08/03 13:03:08;;;;;;;2.15;0.77;;;;;;;;;;5078246;28;20025;-49
2021/08/03 13:05:35;;;;;;;2.03;1.17;;;;;;;;;;5090974;28;20055;-49
2021/08/03 13:08:02;;;;;;;1.92;1.08;;;;;;;;;;5061421;28;20496;-51
2021/08/03 13:10:28;;;;;;;3.83;1.10;;;;;;;;;;5077645;28;20804;-50
2021/08/03 13:12:54;;;;;;;0.95;0.80;;;;;;;;;;5084415;28;20027;-49
2021/08/03 13:15:20;;;;;;;2.53;0.88;;;;;;;;;;5078873;28;20032;-49
2021/08/03 13:17:46;;;;;;;1.55;0.82;;;;;;;;;;5058796;28;20032;-49
2021/08/03 13:20:13;;;;;;;1.88;0.70;;;;;;;;;;5076938;28;20101;-49
2021/08/03 13:22:39;;;;;;;2.50;0.90;;;;;;;;;;5083039;28;20024;-47
2021/08/03 13:25:06;;;;;;;2.35;0.68;;;;;;;;;;5076372;28;20032;-48
2021/08/03 13:27:32;;;;;;;3.35;0.60;;;;;;;;;;5081570;28;20033;-47
2021/08/03 13:29:58;;;;;;;1.50;0.90;;;;;;;;;;5078670;28;20028;-49
2021/08/03 13:32:24;;;;;;;4.88;0.70;;;;;;;;;;5081937;28;20352;-53
2021/08/03 13:34:50;;;;;;;2.38;0.63;;;;;;;;;;5077837;28;20037;-49
2021/08/03 13:37:20;;;;;;;1.88;0.52;;;;;;;;;;5073974;28;20111;-48
2021/08/03 13:39:46;;;;;;;1.20;0.70;;;;;;;;;;5062975;28;20478;-49
2021/08/03 13:42:12;;;;;;;1.35;0.70;;;;;;;;;;5061651;28;20033;-53
2021/08/03 13:44:38;;;;;;;1.50;0.45;;;;;;;;;;5062886;28;20056;-47
2021/08/03 13:47:04;;;;;;;1.00;0.73;;;;;;;;;;5059568;28;20388;-47
2021/08/03 13:49:31;;;;;;;0.80;0.60;;;;;;;;;;5054058;28;20025;-48
2021/08/03 13:51:57;;;;;;;2.25;0.80;;;;;;;;;;5054511;28;20472;-50
2021/08/03 13:54:23;;;;;;;1.27;0.63;;;;;;;;;;5069401;28;20436;-50
2021/08/03 13:56:49;;;;;;;1.60;0.80;;;;;;;;;;5063355;28;20032;-47
2021/08/03 13:59:15;;;;;;;1.83;0.80;;;;;;;;;;5070325;28;20064;-47
2021/08/03 14:01:41;;;;;;;4.25;0.80;;;;;;;;;;5063873;28;20024;-51
2021/08/03 14:04:07;;;;;;;1.63;0.80;;;;;;;;;;5070447;28;20045;-52
2021/08/03 14:06:33;;;;;;;1.00;0.57;;;;;;;;;;5067105;28;20054;-53
2021/08/03 14:08:59;;;;;;;0.77;0.55;;;;;;;;;;5070633;28;20048;-52
2021/08/03 14:11:25;;;;;;;2.50;1.00;;;;;;;;;;5071833;28;20107;-52
2021/08/03 14:13:53;;;;;;;2.83;0.80;;;;;;;;;;5064357;28;20056;-49
2021/08/03 14:16:19;;;;;;;1.58;0.80;;;;;;;;;;5065721;28;20024;-50
2021/08/03 14:18:45;;;;;;;2.72;0.70;;;;;;;;;;5053672;28;20752;-48
2021/08/03 14:21:11;;;;;;;2.60;0.90;;;;;;;;;;5056801;28;20682;-54
2021/08/03 14:23:37;;;;;;;2.15;0.50;;;;;;;;;;5052574;28;20021;-49
2021/08/03 14:26:03;;;;;;;1.50;0.60;;;;;;;;;;5057250;28;20086;-52
2021/08/03 14:28:29;;;;;;;1.00;0.40;;;;;;;;;;5071234;28;20108;-50
2021/08/03 14:30:55;;;;;;;1.02;0.50;;;;;;;;;;5072526;28;20033;-50
2021/08/03 14:33:21;;;;;;;1.27;0.65;;;;;;;;;;5073976;28;20072;-53
2021/08/03 14:35:47;;;;;;;1.13;0.70;;;;;;;;;;5070278;28;20108;-49
2021/08/03 14:38:13;;;;;;;2.97;0.95;;;;;;;;;;5086097;28;20103;-47
2021/08/03 14:40:39;;;;;;;1.83;0.82;;;;;;;;;;5080616;28;20066;-51
2021/08/03 14:43:05;;;;;;;2.13;0.70;;;;;;;;;;5094873;28;20044;-51
2021/08/03 14:45:31;;;;;;;1.33;0.70;;;;;;;;;;5071567;28;20025;-52
2021/08/03 14:47:57;;;;;;;1.45;0.82;;;;;;;;;;5095568;28;20074;-52
2021/08/03 14:50:23;;;;;;;1.27;0.70;;;;;;;;;;5075998;28;20031;-51